sensor_id;sensor_type;location;lat;lon;timestamp;temperature;humidity
55693;DHT22;41590;53.366;5.212;2022-11-18T00:01:22;8.30;99.90
55693;DHT22;41590;53.366;5.212;2022-11-18T00:03:50;8.30;99.90
55693;DHT22;41590;53.366;5.212;2022-11-18T00:06:22;8.00;99.90
55693;DHT22;41590;53.366;5.212;2022-11-18T00:08:51;7.90;99.90
55693;DHT22;41590;53.366;5.212;2022-11-18T00:11:21;8.90;99.90
55693;DHT22;41590;53.366;5.212;2022-11-18T00:14:18;8.80;99.90
55693;DHT22;41590;53.366;5.212;2022-11-18T00:16:54;7.90;99.90
55693;DHT22;41590;53.366;5.212;2022-11-18T00:19:23;8.00;99.90
55693;DHT22;41590;53.366;5.212;2022-11-18T00:21:50;8.00;99.90
55693;DHT22;41590;53.366;5.212;2022-11-18T00:24:19;8.90;99.90
55693;DHT22;41590;53.366;5.212;2022-11-18T00:26:45;7.80;99.90
55693;DHT22;41590;53.366;5.212;2022-11-18T00:29:12;7.80;99.90
55693;DHT22;41590;53.366;5.212;2022-11-18T00:31:38;8.70;99.90
55693;DHT22;41590;53.366;5.212;2022-11-18T00:34:12;7.80;99.90
55693;DHT22;41590;53.366;5.212;2022-11-18T00:36:45;7.70;99.90
55693;DHT22;41590;53.366;5.212;2022-11-18T00:39:14;7.70;99.90
55693;DHT22;41590;53.366;5.212;2022-11-18T00:41:41;8.80;99.90
55693;DHT22;41590;53.366;5.212;2022-11-18T00:44:35;7.70;99.90
55693;DHT22;41590;53.366;5.212;2022-11-18T00:47:02;8.20;99.90
55693;DHT22;41590;53.366;5.212;2022-11-18T00:49:33;8.60;99.90
55693;DHT22;41590;53.366;5.212;2022-11-18T00:51:58;7.80;99.90
55693;DHT22;41590;53.366;5.212;2022-11-18T00:54:24;8.50;99.90
55693;DHT22;41590;53.366;5.212;2022-11-18T00:56:52;7.90;99.90
55693;DHT22;41590;53.366;5.212;2022-11-18T00:59:19;7.60;99.90
55693;DHT22;41590;53.366;5.212;2022-11-18T01:01:45;8.60;99.90
55693;DHT22;41590;53.366;5.212;2022-11-18T01:04:13;8.40;99.90
55693;DHT22;41590;53.366;5.212;2022-11-18T01:06:40;8.50;99.90
55693;DHT22;41590;53.366;5.212;2022-11-18T01:09:07;8.50;99.90
55693;DHT22;41590;53.366;5.212;2022-11-18T01:11:40;8.50;99.90
55693;DHT22;41590;53.366;5.212;2022-11-18T01:14:51;8.30;99.90
55693;DHT22;41590;53.366;5.212;2022-11-18T01:17:17;7.60;99.90
55693;DHT22;41590;53.366;5.212;2022-11-18T01:19:42;7.50;99.90
55693;DHT22;41590;53.366;5.212;2022-11-18T01:22:14;8.60;99.90
55693;DHT22;41590;53.366;5.212;2022-11-18T01:24:49;7.50;99.90
55693;DHT22;41590;53.366;5.212;2022-11-18T01:27:16;8.40;99.90
55693;DHT22;41590;53.366;5.212;2022-11-18T01:29:43;8.30;99.90
55693;DHT22;41590;53.366;5.212;2022-11-18T01:32:10;8.70;99.90
55693;DHT22;41590;53.366;5.212;2022-11-18T01:34:36;8.20;99.90
55693;DHT22;41590;53.366;5.212;2022-11-18T01:37:02;7.40;99.90
55693;DHT22;41590;53.366;5.212;2022-11-18T01:39:30;7.80;99.90
55693;DHT22;41590;53.366;5.212;2022-11-18T01:41:56;8.00;99.90
55693;DHT22;41590;53.366;5.212;2022-11-18T01:47:19;8.70;99.90
55693;DHT22;41590;53.366;5.212;2022-11-18T01:49:46;7.50;99.90
55693;DHT22;41590;53.366;5.212;2022-11-18T01:52:12;7.90;99.90
55693;DHT22;41590;53.366;5.212;2022-11-18T01:54:46;8.70;99.90
55693;DHT22;41590;53.366;5.212;2022-11-18T01:57:20;8.70;99.90
55693;DHT22;41590;53.366;5.212;2022-11-18T01:59:49;8.30;99.90
55693;DHT22;41590;53.366;5.212;2022-11-18T02:02:17;7.50;99.90
55693;DHT22;41590;53.366;5.212;2022-11-18T02:04:46;8.30;99.90
55693;DHT22;41590;53.366;5.212;2022-11-18T02:07:13;7.40;99.90
55693;DHT22;41590;53.366;5.212;2022-11-18T02:09:40;7.40;99.90
55693;DHT22;41590;53.366;5.212;2022-11-18T02:12:08;7.40;99.90
55693;DHT22;41590;53.366;5.212;2022-11-18T02:14:45;7.30;99.90
55693;DHT22;41590;53.366;5.212;2022-11-18T02:17:27;7.30;99.90
55693;DHT22;41590;53.366;5.212;2022-11-18T02:20:27;7.30;99.90
55693;DHT22;41590;53.366;5.212;2022-11-18T02:26:20;7.80;99.90
55693;DHT22;41590;53.366;5.212;2022-11-18T02:29:10;8.30;99.90
55693;DHT22;41590;53.366;5.212;2022-11-18T02:31:45;8.40;99.90
55693;DHT22;41590;53.366;5.212;2022-11-18T02:36:51;8.40;99.90
55693;DHT22;41590;53.366;5.212;2022-11-18T02:39:32;8.30;99.90
55693;DHT22;41590;53.366;5.212;2022-11-18T02:42:03;7.30;99.90
55693;DHT22;41590;53.366;5.212;2022-11-18T02:44:32;8.30;99.90
55693;DHT22;41590;53.366;5.212;2022-11-18T02:47:01;7.90;99.90
55693;DHT22;41590;53.366;5.212;2022-11-18T02:49:38;8.20;99.90
55693;DHT22;41590;53.366;5.212;2022-11-18T02:52:07;8.50;99.90
55693;DHT22;41590;53.366;5.212;2022-11-18T02:54:38;7.70;99.90
55693;DHT22;41590;53.366;5.212;2022-11-18T02:57:07;8.30;99.90
55693;DHT22;41590;53.366;5.212;2022-11-18T02:59:33;7.30;99.90
55693;DHT22;41590;53.366;5.212;2022-11-18T03:02:01;8.30;99.90
55693;DHT22;41590;53.366;5.212;2022-11-18T03:04:28;7.30;99.90
55693;DHT22;41590;53.366;5.212;2022-11-18T03:07:11;8.20;99.90
55693;DHT22;41590;53.366;5.212;2022-11-18T03:09:45;7.50;99.90
55693;DHT22;41590;53.366;5.212;2022-11-18T03:15:16;8.10;99.90
55693;DHT22;41590;53.366;5.212;2022-11-18T03:18:02;7.40;99.90
55693;DHT22;41590;53.366;5.212;2022-11-18T03:20:46;7.90;99.90
55693;DHT22;41590;53.366;5.212;2022-11-18T03:26:24;7.50;99.90
55693;DHT22;41590;53.366;5.212;2022-11-18T03:29:01;8.40;99.90
55693;DHT22;41590;53.366;5.212;2022-11-18T03:34:06;7.40;99.90
55693;DHT22;41590;53.366;5.212;2022-11-18T03:36:39;8.40;99.90
55693;DHT22;41590;53.366;5.212;2022-11-18T03:39:07;7.50;99.90
55693;DHT22;41590;53.366;5.212;2022-11-18T03:41:41;8.10;99.90
55693;DHT22;41590;53.366;5.212;2022-11-18T03:44:10;8.20;99.90
55693;DHT22;41590;53.366;5.212;2022-11-18T03:46:45;7.70;99.90
55693;DHT22;41590;53.366;5.212;2022-11-18T03:49:16;8.40;99.90
55693;DHT22;41590;53.366;5.212;2022-11-18T03:51:49;8.00;99.90
55693;DHT22;41590;53.366;5.212;2022-11-18T03:54:22;8.00;99.90
55693;DHT22;41590;53.366;5.212;2022-11-18T03:57:01;7.40;99.90
55693;DHT22;41590;53.366;5.212;2022-11-18T03:59:51;8.10;99.90
55693;DHT22;41590;53.366;5.212;2022-11-18T04:02:22;7.50;99.90
55693;DHT22;41590;53.366;5.212;2022-11-18T04:04:51;8.40;99.90
55693;DHT22;41590;53.366;5.212;2022-11-18T04:07:36;7.60;99.90
55693;DHT22;41590;53.366;5.212;2022-11-18T04:10:16;8.00;99.90
55693;DHT22;41590;53.366;5.212;2022-11-18T04:12:59;7.70;99.90
55693;DHT22;41590;53.366;5.212;2022-11-18T04:15:30;7.70;99.90
55693;DHT22;41590;53.366;5.212;2022-11-18T04:18:01;8.50;99.90
55693;DHT22;41590;53.366;5.212;2022-11-18T04:20:28;7.70;99.90
55693;DHT22;41590;53.366;5.212;2022-11-18T04:22:57;8.60;99.90
55693;DHT22;41590;53.366;5.212;2022-11-18T04:25:22;8.00;99.90
55693;DHT22;41590;53.366;5.212;2022-11-18T04:27:51;8.50;99.90
55693;DHT22;41590;53.366;5.212;2022-11-18T04:30:17;7.80;99.90
55693;DHT22;41590;53.366;5.212;2022-11-18T04:32:43;7.60;99.90
55693;DHT22;41590;53.366;5.212;2022-11-18T04:35:10;8.50;99.90
55693;DHT22;41590;53.366;5.212;2022-11-18T04:37:36;8.50;99.90
55693;DHT22;41590;53.366;5.212;2022-11-18T04:40:04;8.50;99.90
55693;DHT22;41590;53.366;5.212;2022-11-18T04:42:31;8.60;99.90
55693;DHT22;41590;53.366;5.212;2022-11-18T04:44:57;7.60;99.90
55693;DHT22;41590;53.366;5.212;2022-11-18T04:47:25;8.10;99.90
55693;DHT22;41590;53.366;5.212;2022-11-18T04:49:51;8.00;99.90
55693;DHT22;41590;53.366;5.212;2022-11-18T04:52:16;8.00;99.90
55693;DHT22;41590;53.366;5.212;2022-11-18T04:55:08;7.70;99.90
55693;DHT22;41590;53.366;5.212;2022-11-18T04:57:38;7.60;99.90
55693;DHT22;41590;53.366;5.212;2022-11-18T05:00:07;8.10;99.90
55693;DHT22;41590;53.366;5.212;2022-11-18T05:02:34;8.10;99.90
55693;DHT22;41590;53.366;5.212;2022-11-18T05:04:59;8.60;99.90
55693;DHT22;41590;53.366;5.212;2022-11-18T05:07:25;7.90;99.90
55693;DHT22;41590;53.366;5.212;2022-11-18T05:09:52;8.60;99.90
55693;DHT22;41590;53.366;5.212;2022-11-18T05:12:17;7.70;99.90
55693;DHT22;41590;53.366;5.212;2022-11-18T05:15:02;8.10;99.90
55693;DHT22;41590;53.366;5.212;2022-11-18T05:17:27;8.30;99.90
55693;DHT22;41590;53.366;5.212;2022-11-18T05:19:53;7.60;99.90
55693;DHT22;41590;53.366;5.212;2022-11-18T05:22:29;8.50;99.90
55693;DHT22;41590;53.366;5.212;2022-11-18T05:24:57;8.60;99.90
55693;DHT22;41590;53.366;5.212;2022-11-18T05:27:22;7.80;99.90
55693;DHT22;41590;53.366;5.212;2022-11-18T05:29:48;7.80;99.90
55693;DHT22;41590;53.366;5.212;2022-11-18T05:32:17;8.50;99.90
55693;DHT22;41590;53.366;5.212;2022-11-18T05:34:45;7.90;99.90
55693;DHT22;41590;53.366;5.212;2022-11-18T05:37:12;7.60;99.90
55693;DHT22;41590;53.366;5.212;2022-11-18T05:39:38;8.40;99.90
55693;DHT22;41590;53.366;5.212;2022-11-18T05:42:06;8.40;99.90
55693;DHT22;41590;53.366;5.212;2022-11-18T05:44:51;7.70;99.90
55693;DHT22;41590;53.366;5.212;2022-11-18T05:47:23;7.50;99.90
55693;DHT22;41590;53.366;5.212;2022-11-18T05:49:50;8.20;99.90
55693;DHT22;41590;53.366;5.212;2022-11-18T05:52:16;7.70;99.90
55693;DHT22;41590;53.366;5.212;2022-11-18T05:58:10;7.50;99.90
55693;DHT22;41590;53.366;5.212;2022-11-18T06:00:40;8.50;99.90
55693;DHT22;41590;53.366;5.212;2022-11-18T06:03:14;7.90;99.90
55693;DHT22;41590;53.366;5.212;2022-11-18T06:05:42;7.90;99.90
55693;DHT22;41590;53.366;5.212;2022-11-18T06:08:09;7.60;99.90
55693;DHT22;41590;53.366;5.212;2022-11-18T06:10:40;8.20;99.90
55693;DHT22;41590;53.366;5.212;2022-11-18T06:13:14;7.90;99.90
55693;DHT22;41590;53.366;5.212;2022-11-18T06:15:43;8.60;99.90
55693;DHT22;41590;53.366;5.212;2022-11-18T06:18:17;7.60;99.90
55693;DHT22;41590;53.366;5.212;2022-11-18T06:20:46;8.40;99.90
55693;DHT22;41590;53.366;5.212;2022-11-18T06:23:12;8.30;99.90
55693;DHT22;41590;53.366;5.212;2022-11-18T06:25:39;7.70;99.90
55693;DHT22;41590;53.366;5.212;2022-11-18T06:28:05;7.60;99.90
55693;DHT22;41590;53.366;5.212;2022-11-18T06:30:31;7.40;99.90
55693;DHT22;41590;53.366;5.212;2022-11-18T06:32:59;7.50;99.90
55693;DHT22;41590;53.366;5.212;2022-11-18T06:35:26;7.60;99.90
55693;DHT22;41590;53.366;5.212;2022-11-18T06:37:52;7.30;99.90
55693;DHT22;41590;53.366;5.212;2022-11-18T06:40:19;7.50;99.90
55693;DHT22;41590;53.366;5.212;2022-11-18T06:42:45;8.30;99.90
55693;DHT22;41590;53.366;5.212;2022-11-18T06:45:31;7.90;99.90
55693;DHT22;41590;53.366;5.212;2022-11-18T06:47:58;7.40;99.90
55693;DHT22;41590;53.366;5.212;2022-11-18T06:50:30;8.30;99.90
55693;DHT22;41590;53.366;5.212;2022-11-18T06:52:59;7.60;99.90
55693;DHT22;41590;53.366;5.212;2022-11-18T06:55:28;7.40;99.90
55693;DHT22;41590;53.366;5.212;2022-11-18T06:58:02;8.20;99.90
55693;DHT22;41590;53.366;5.212;2022-11-18T07:00:28;7.30;99.90
55693;DHT22;41590;53.366;5.212;2022-11-18T07:02:56;8.30;99.90
55693;DHT22;41590;53.366;5.212;2022-11-18T07:05:23;7.70;99.90
55693;DHT22;41590;53.366;5.212;2022-11-18T07:07:48;7.80;99.90
55693;DHT22;41590;53.366;5.212;2022-11-18T07:10:15;7.40;99.90
55693;DHT22;41590;53.366;5.212;2022-11-18T07:12:42;7.30;99.90
55693;DHT22;41590;53.366;5.212;2022-11-18T07:15:24;8.30;99.90
55693;DHT22;41590;53.366;5.212;2022-11-18T07:17:50;7.50;99.90
55693;DHT22;41590;53.366;5.212;2022-11-18T07:20:25;8.00;99.90
55693;DHT22;41590;53.366;5.212;2022-11-18T07:22:52;7.50;99.90
55693;DHT22;41590;53.366;5.212;2022-11-18T07:25:23;8.00;99.90
55693;DHT22;41590;53.366;5.212;2022-11-18T07:27:49;7.30;99.90
55693;DHT22;41590;53.366;5.212;2022-11-18T07:30:20;7.30;99.90
55693;DHT22;41590;53.366;5.212;2022-11-18T07:32:46;8.30;99.90
55693;DHT22;41590;53.366;5.212;2022-11-18T07:35:15;8.40;99.90
55693;DHT22;41590;53.366;5.212;2022-11-18T07:37:44;8.10;99.90
55693;DHT22;41590;53.366;5.212;2022-11-18T07:40:30;8.30;99.90
55693;DHT22;41590;53.366;5.212;2022-11-18T07:42:55;7.70;99.90
55693;DHT22;41590;53.366;5.212;2022-11-18T07:45:25;8.20;99.90
55693;DHT22;41590;53.366;5.212;2022-11-18T07:47:55;7.40;99.90
55693;DHT22;41590;53.366;5.212;2022-11-18T07:50:22;7.30;99.90
55693;DHT22;41590;53.366;5.212;2022-11-18T07:52:47;7.30;99.90
55693;DHT22;41590;53.366;5.212;2022-11-18T07:55:15;8.20;99.90
55693;DHT22;41590;53.366;5.212;2022-11-18T07:57:59;8.00;99.90
55693;DHT22;41590;53.366;5.212;2022-11-18T08:00:29;7.70;99.90
55693;DHT22;41590;53.366;5.212;2022-11-18T08:03:03;7.60;99.90
55693;DHT22;41590;53.366;5.212;2022-11-18T08:05:31;7.40;99.90
55693;DHT22;41590;53.366;5.212;2022-11-18T08:08:00;7.40;99.90
55693;DHT22;41590;53.366;5.212;2022-11-18T08:10:26;7.80;99.90
55693;DHT22;41590;53.366;5.212;2022-11-18T08:12:53;7.90;99.90
55693;DHT22;41590;53.366;5.212;2022-11-18T08:15:23;8.00;99.90
55693;DHT22;41590;53.366;5.212;2022-11-18T08:17:49;7.30;99.90
55693;DHT22;41590;53.366;5.212;2022-11-18T08:20:27;7.30;99.90
55693;DHT22;41590;53.366;5.212;2022-11-18T08:22:53;7.70;99.90
55693;DHT22;41590;53.366;5.212;2022-11-18T08:25:31;7.30;99.90
55693;DHT22;41590;53.366;5.212;2022-11-18T08:27:59;8.10;99.90
55693;DHT22;41590;53.366;5.212;2022-11-18T08:30:25;7.60;99.90
55693;DHT22;41590;53.366;5.212;2022-11-18T08:32:54;8.20;99.90
55693;DHT22;41590;53.366;5.212;2022-11-18T08:35:21;8.30;99.90
55693;DHT22;41590;53.366;5.212;2022-11-18T08:37:49;8.10;99.90
55693;DHT22;41590;53.366;5.212;2022-11-18T08:40:22;7.70;99.90
55693;DHT22;41590;53.366;5.212;2022-11-18T08:42:49;8.20;99.90
55693;DHT22;41590;53.366;5.212;2022-11-18T08:45:19;7.80;99.90
55693;DHT22;41590;53.366;5.212;2022-11-18T08:47:45;7.40;99.90
55693;DHT22;41590;53.366;5.212;2022-11-18T08:50:12;7.50;99.90
55693;DHT22;41590;53.366;5.212;2022-11-18T08:52:38;8.30;99.90
55693;DHT22;41590;53.366;5.212;2022-11-18T08:55:06;7.60;99.90
55693;DHT22;41590;53.366;5.212;2022-11-18T08:57:32;7.60;99.90
55693;DHT22;41590;53.366;5.212;2022-11-18T08:59:59;8.20;99.90
55693;DHT22;41590;53.366;5.212;2022-11-18T09:02:24;8.50;99.90
55693;DHT22;41590;53.366;5.212;2022-11-18T09:04:51;8.30;99.90
55693;DHT22;41590;53.366;5.212;2022-11-18T09:07:21;7.50;99.90
55693;DHT22;41590;53.366;5.212;2022-11-18T09:09:49;8.10;99.90
55693;DHT22;41590;53.366;5.212;2022-11-18T09:12:22;8.20;99.90
55693;DHT22;41590;53.366;5.212;2022-11-18T09:14:52;7.90;99.90
55693;DHT22;41590;53.366;5.212;2022-11-18T09:17:22;7.50;99.90
55693;DHT22;41590;53.366;5.212;2022-11-18T09:19:49;8.40;99.90
55693;DHT22;41590;53.366;5.212;2022-11-18T09:22:16;8.40;99.90
55693;DHT22;41590;53.366;5.212;2022-11-18T09:24:48;8.10;99.90
55693;DHT22;41590;53.366;5.212;2022-11-18T09:27:14;7.50;99.90
55693;DHT22;41590;53.366;5.212;2022-11-18T09:29:47;8.00;99.90
55693;DHT22;41590;53.366;5.212;2022-11-18T09:32:21;8.40;99.90
55693;DHT22;41590;53.366;5.212;2022-11-18T09:34:47;7.50;99.90
55693;DHT22;41590;53.366;5.212;2022-11-18T09:37:13;7.80;99.90
55693;DHT22;41590;53.366;5.212;2022-11-18T09:39:42;8.40;99.90
55693;DHT22;41590;53.366;5.212;2022-11-18T09:45:22;8.20;99.90
55693;DHT22;41590;53.366;5.212;2022-11-18T09:47:57;8.20;99.90
55693;DHT22;41590;53.366;5.212;2022-11-18T09:50:25;8.30;99.90
55693;DHT22;41590;53.366;5.212;2022-11-18T09:55:34;8.40;99.90
55693;DHT22;41590;53.366;5.212;2022-11-18T09:58:06;7.70;99.90
55693;DHT22;41590;53.366;5.212;2022-11-18T10:00:33;8.80;99.90
55693;DHT22;41590;53.366;5.212;2022-11-18T10:19:33;7.90;99.90
55693;DHT22;41590;53.366;5.212;2022-11-18T10:22:29;7.70;99.90
55693;DHT22;41590;53.366;5.212;2022-11-18T10:25:00;8.40;99.90
55693;DHT22;41590;53.366;5.212;2022-11-18T10:27:34;8.00;99.90
55693;DHT22;41590;53.366;5.212;2022-11-18T10:30:18;8.40;99.90
55693;DHT22;41590;53.366;5.212;2022-11-18T10:33:03;7.50;99.90
55693;DHT22;41590;53.366;5.212;2022-11-18T10:35:41;8.20;99.90
55693;DHT22;41590;53.366;5.212;2022-11-18T10:38:21;7.90;99.90
55693;DHT22;41590;53.366;5.212;2022-11-18T10:41:07;8.50;99.90
55693;DHT22;41590;53.366;5.212;2022-11-18T10:43:52;7.60;99.90
55693;DHT22;41590;53.366;5.212;2022-11-18T10:51:44;8.40;99.90
55693;DHT22;41590;53.366;5.212;2022-11-18T10:54:17;7.50;99.90
55693;DHT22;41590;53.366;5.212;2022-11-18T10:57:17;7.90;99.90
55693;DHT22;41590;53.366;5.212;2022-11-18T10:59:55;7.50;99.90
55693;DHT22;41590;53.366;5.212;2022-11-18T11:02:32;8.00;99.90
55693;DHT22;41590;53.366;5.212;2022-11-18T11:05:14;7.80;99.90
55693;DHT22;41590;53.366;5.212;2022-11-18T11:08:00;8.50;99.90
55693;DHT22;41590;53.366;5.212;2022-11-18T11:10:32;7.70;99.90
55693;DHT22;41590;53.366;5.212;2022-11-18T11:13:08;8.50;99.90
55693;DHT22;41590;53.366;5.212;2022-11-18T11:15:40;8.60;99.90
55693;DHT22;41590;53.366;5.212;2022-11-18T11:18:31;8.20;99.90
55693;DHT22;41590;53.366;5.212;2022-11-18T11:21:26;7.90;99.90
55693;DHT22;41590;53.366;5.212;2022-11-18T11:23:54;8.00;99.90
55693;DHT22;41590;53.366;5.212;2022-11-18T11:29:37;8.40;99.90
55693;DHT22;41590;53.366;5.212;2022-11-18T11:38:02;7.50;99.90
55693;DHT22;41590;53.366;5.212;2022-11-18T11:41:02;8.10;99.90
55693;DHT22;41590;53.366;5.212;2022-11-18T11:43:53;7.90;99.90
55693;DHT22;41590;53.366;5.212;2022-11-18T11:50:00;7.80;99.90
55693;DHT22;41590;53.366;5.212;2022-11-18T11:58:03;7.90;99.90
55693;DHT22;41590;53.366;5.212;2022-11-18T12:00:37;7.20;99.90
55693;DHT22;41590;53.366;5.212;2022-11-18T12:03:32;7.90;99.90
55693;DHT22;41590;53.366;5.212;2022-11-18T12:06:17;7.50;99.90
55693;DHT22;41590;53.366;5.212;2022-11-18T12:09:02;7.10;99.90
55693;DHT22;41590;53.366;5.212;2022-11-18T12:14:56;7.80;99.90
55693;DHT22;41590;53.366;5.212;2022-11-18T12:17:39;7.50;99.90
55693;DHT22;41590;53.366;5.212;2022-11-18T12:27:11;7.90;99.90
55693;DHT22;41590;53.366;5.212;2022-11-18T12:32:34;7.10;99.90
55693;DHT22;41590;53.366;5.212;2022-11-18T12:35:26;7.30;99.90
55693;DHT22;41590;53.366;5.212;2022-11-18T12:40:38;7.70;99.90
55693;DHT22;41590;53.366;5.212;2022-11-18T12:43:10;7.90;99.90
55693;DHT22;41590;53.366;5.212;2022-11-18T12:55:00;6.70;99.90
55693;DHT22;41590;53.366;5.212;2022-11-18T12:57:33;7.50;99.90
55693;DHT22;41590;53.366;5.212;2022-11-18T13:03:00;6.80;99.90
55693;DHT22;41590;53.366;5.212;2022-11-18T13:06:06;7.30;99.90
55693;DHT22;41590;53.366;5.212;2022-11-18T13:08:39;7.00;99.90
55693;DHT22;41590;53.366;5.212;2022-11-18T13:11:13;7.50;99.90
55693;DHT22;41590;53.366;5.212;2022-11-18T13:14:00;6.70;99.90
55693;DHT22;41590;53.366;5.212;2022-11-18T13:16:47;7.10;99.90
55693;DHT22;41590;53.366;5.212;2022-11-18T13:19:31;6.60;99.90
55693;DHT22;41590;53.366;5.212;2022-11-18T13:21:58;7.20;99.90
55693;DHT22;41590;53.366;5.212;2022-11-18T13:24:55;7.30;99.90
55693;DHT22;41590;53.366;5.212;2022-11-18T13:33:48;6.40;99.90
55693;DHT22;41590;53.366;5.212;2022-11-18T13:36:30;6.90;99.90
55693;DHT22;41590;53.366;5.212;2022-11-18T13:39:00;7.40;99.90
55693;DHT22;41590;53.366;5.212;2022-11-18T13:41:29;6.20;99.90
55693;DHT22;41590;53.366;5.212;2022-11-18T13:44:20;6.10;99.90
55693;DHT22;41590;53.366;5.212;2022-11-18T13:58:42;6.90;99.90
55693;DHT22;41590;53.366;5.212;2022-11-18T14:03:52;6.70;99.90
55693;DHT22;41590;53.366;5.212;2022-11-18T14:06:25;5.90;99.90
55693;DHT22;41590;53.366;5.212;2022-11-18T14:08:51;6.20;99.90
55693;DHT22;41590;53.366;5.212;2022-11-18T14:11:39;6.30;99.90
55693;DHT22;41590;53.366;5.212;2022-11-18T14:14:10;6.40;99.90
55693;DHT22;41590;53.366;5.212;2022-11-18T14:16:41;6.70;99.90
55693;DHT22;41590;53.366;5.212;2022-11-18T14:19:40;5.80;99.90
55693;DHT22;41590;53.366;5.212;2022-11-18T14:22:25;6.80;99.90
55693;DHT22;41590;53.366;5.212;2022-11-18T14:24:59;6.60;99.90
55693;DHT22;41590;53.366;5.212;2022-11-18T14:27:49;6.30;99.90
55693;DHT22;41590;53.366;5.212;2022-11-18T14:30:37;5.80;99.90
55693;DHT22;41590;53.366;5.212;2022-11-18T14:33:18;5.70;99.90
55693;DHT22;41590;53.366;5.212;2022-11-18T14:35:59;6.60;99.90
55693;DHT22;41590;53.366;5.212;2022-11-18T14:38:49;5.60;99.90
55693;DHT22;41590;53.366;5.212;2022-11-18T14:41:17;6.40;99.90
55693;DHT22;41590;53.366;5.212;2022-11-18T14:49:13;5.50;99.90
55693;DHT22;41590;53.366;5.212;2022-11-18T14:51:39;5.60;99.90
55693;DHT22;41590;53.366;5.212;2022-11-18T14:54:05;6.40;99.90
55693;DHT22;41590;53.366;5.212;2022-11-18T14:56:34;5.30;99.90
55693;DHT22;41590;53.366;5.212;2022-11-18T14:58:59;6.40;99.90
55693;DHT22;41590;53.366;5.212;2022-11-18T15:04:49;5.60;99.90
55693;DHT22;41590;53.366;5.212;2022-11-18T15:07:21;6.60;99.90
55693;DHT22;41590;53.366;5.212;2022-11-18T15:09:50;5.50;99.90
55693;DHT22;41590;53.366;5.212;2022-11-18T15:12:32;5.70;99.90
55693;DHT22;41590;53.366;5.212;2022-11-18T15:14:59;6.20;99.90
55693;DHT22;41590;53.366;5.212;2022-11-18T15:17:26;5.70;99.90
55693;DHT22;41590;53.366;5.212;2022-11-18T15:19:59;5.40;99.90
55693;DHT22;41590;53.366;5.212;2022-11-18T15:22:27;5.10;99.90
55693;DHT22;41590;53.366;5.212;2022-11-18T15:25:05;5.10;99.90
55693;DHT22;41590;53.366;5.212;2022-11-18T15:27:33;5.80;99.90
55693;DHT22;41590;53.366;5.212;2022-11-18T15:30:03;5.40;99.90
55693;DHT22;41590;53.366;5.212;2022-11-18T15:32:34;5.00;99.90
55693;DHT22;41590;53.366;5.212;2022-11-18T15:35:03;6.50;99.90
55693;DHT22;41590;53.366;5.212;2022-11-18T15:37:31;5.80;99.90
55693;DHT22;41590;53.366;5.212;2022-11-18T15:43:22;4.90;99.90
55693;DHT22;41590;53.366;5.212;2022-11-18T15:48:22;4.90;99.90
55693;DHT22;41590;53.366;5.212;2022-11-18T15:50:53;5.00;99.90
55693;DHT22;41590;53.366;5.212;2022-11-18T15:53:23;5.80;99.90
55693;DHT22;41590;53.366;5.212;2022-11-18T15:59:36;4.70;99.90
55693;DHT22;41590;53.366;5.212;2022-11-18T16:02:03;5.70;99.90
55693;DHT22;41590;53.366;5.212;2022-11-18T16:06:57;4.90;99.90
55693;DHT22;41590;53.366;5.212;2022-11-18T16:09:25;4.60;99.90
55693;DHT22;41590;53.366;5.212;2022-11-18T16:12:11;5.30;99.90
55693;DHT22;41590;53.366;5.212;2022-11-18T16:14:55;4.70;99.90
55693;DHT22;41590;53.366;5.212;2022-11-18T16:17:45;4.80;99.90
55693;DHT22;41590;53.366;5.212;2022-11-18T16:20:11;5.70;99.90
55693;DHT22;41590;53.366;5.212;2022-11-18T16:22:36;5.00;99.90
55693;DHT22;41590;53.366;5.212;2022-11-18T16:30:08;4.90;99.90
55693;DHT22;41590;53.366;5.212;2022-11-18T16:32:56;5.10;99.90
55693;DHT22;41590;53.366;5.212;2022-11-18T16:35:45;4.40;99.90
55693;DHT22;41590;53.366;5.212;2022-11-18T16:38:12;5.40;99.90
55693;DHT22;41590;53.366;5.212;2022-11-18T16:40:46;5.30;99.90
55693;DHT22;41590;53.366;5.212;2022-11-18T16:43:18;4.90;99.90
55693;DHT22;41590;53.366;5.212;2022-11-18T16:48:22;4.60;99.90
55693;DHT22;41590;53.366;5.212;2022-11-18T16:51:11;5.10;99.90
55693;DHT22;41590;53.366;5.212;2022-11-18T16:53:42;5.00;99.90
55693;DHT22;41590;53.366;5.212;2022-11-18T16:59:30;4.00;99.90
55693;DHT22;41590;53.366;5.212;2022-11-18T17:01:57;5.10;99.90
55693;DHT22;41590;53.366;5.212;2022-11-18T17:04:24;5.70;99.90
55693;DHT22;41590;53.366;5.212;2022-11-18T17:06:52;4.00;99.90
55693;DHT22;41590;53.366;5.212;2022-11-18T17:09:23;5.10;99.90
55693;DHT22;41590;53.366;5.212;2022-11-18T17:11:51;4.80;99.90
55693;DHT22;41590;53.366;5.212;2022-11-18T17:14:23;4.00;99.90
55693;DHT22;41590;53.366;5.212;2022-11-18T17:16:50;4.70;99.90
55693;DHT22;41590;53.366;5.212;2022-11-18T17:19:20;4.00;99.90
55693;DHT22;41590;53.366;5.212;2022-11-18T17:21:48;4.50;99.90
55693;DHT22;41590;53.366;5.212;2022-11-18T17:24:18;4.90;99.90
55693;DHT22;41590;53.366;5.212;2022-11-18T17:26:51;5.10;99.90
55693;DHT22;41590;53.366;5.212;2022-11-18T17:29:19;4.90;99.90
55693;DHT22;41590;53.366;5.212;2022-11-18T17:31:52;4.50;99.90
55693;DHT22;41590;53.366;5.212;2022-11-18T17:34:20;5.40;99.90
55693;DHT22;41590;53.366;5.212;2022-11-18T17:36:49;5.00;99.90
55693;DHT22;41590;53.366;5.212;2022-11-18T17:39:16;4.30;99.90
55693;DHT22;41590;53.366;5.212;2022-11-18T17:41:48;4.90;99.90
55693;DHT22;41590;53.366;5.212;2022-11-18T17:47:55;4.40;99.90
55693;DHT22;41590;53.366;5.212;2022-11-18T17:50:28;4.80;99.90
55693;DHT22;41590;53.366;5.212;2022-11-18T17:55:23;4.20;99.90
55693;DHT22;41590;53.366;5.212;2022-11-18T17:57:49;4.50;99.90
55693;DHT22;41590;53.366;5.212;2022-11-18T18:00:21;4.20;99.90
55693;DHT22;41590;53.366;5.212;2022-11-18T18:02:53;3.80;99.90
55693;DHT22;41590;53.366;5.212;2022-11-18T18:05:27;4.10;99.90
55693;DHT22;41590;53.366;5.212;2022-11-18T18:08:04;4.80;99.90
55693;DHT22;41590;53.366;5.212;2022-11-18T18:21:43;3.50;99.90
55693;DHT22;41590;53.366;5.212;2022-11-18T18:24:35;3.00;99.90
55693;DHT22;41590;53.366;5.212;2022-11-18T18:27:05;3.90;99.90
55693;DHT22;41590;53.366;5.212;2022-11-18T18:33:12;4.20;99.90
55693;DHT22;41590;53.366;5.212;2022-11-18T18:35:43;3.80;99.90
55693;DHT22;41590;53.366;5.212;2022-11-18T18:38:37;4.30;99.90
55693;DHT22;41590;53.366;5.212;2022-11-18T18:41:17;4.00;99.90
55693;DHT22;41590;53.366;5.212;2022-11-18T18:43:54;4.10;99.90
55693;DHT22;41590;53.366;5.212;2022-11-18T18:46:25;3.60;99.90
55693;DHT22;41590;53.366;5.212;2022-11-18T18:49:16;4.60;99.90
55693;DHT22;41590;53.366;5.212;2022-11-18T18:55:54;3.40;99.90
55693;DHT22;41590;53.366;5.212;2022-11-18T19:02:14;3.60;99.90
55693;DHT22;41590;53.366;5.212;2022-11-18T19:04:47;3.40;99.90
55693;DHT22;41590;53.366;5.212;2022-11-18T19:07:28;4.00;99.90
55693;DHT22;41590;53.366;5.212;2022-11-18T19:13:17;3.80;99.90
55693;DHT22;41590;53.366;5.212;2022-11-18T19:15:57;4.50;99.90
55693;DHT22;41590;53.366;5.212;2022-11-18T19:18:23;3.40;99.90